Time;durP1;ratioP1;P1;durP2;ratioP2;P2;SDS_P1;SDS_P2;PMS_P1;PMS_P2;Temp;Humidity;BMP_temperature;BMP_pressure;BME280_temperature;BME280_humidity;BME280_pressure;Samples;Min_cycle;Max_cycle;Signal;HPM_P1;HPM_P2
2022/05/09 00:01:36;;;;;;;17.95;10.55;;;;;;;;;;4931385;29;20106;-86
2022/05/09 00:04:02;;;;;;;15.43;12.98;;;;;;;;;;4923858;29;20059;-91
2022/05/09 00:06:28;;;;;;;16.58;11.68;;;;;;;;;;4923144;29;20046;-91
2022/05/09 00:08:54;;;;;;;16.40;10.38;;;;;;;;;;4923088;29;20075;-90
2022/05/09 00:11:20;;;;;;;17.38;12.27;;;;;;;;;;4922479;29;20027;-84
2022/05/09 00:13:46;;;;;;;16.85;12.13;;;;;;;;;;4922346;29;20569;-90
2022/05/09 00:16:13;;;;;;;15.45;12.82;;;;;;;;;;4922332;29;20031;-87
2022/05/09 00:18:39;;;;;;;13.68;12.30;;;;;;;;;;4923147;29;20044;-89
2022/05/09 00:21:05;;;;;;;20.98;12.35;;;;;;;;;;4922303;29;20019;-90
2022/05/09 00:23:31;;;;;;;18.55;11.45;;;;;;;;;;4922916;29;20039;-89
2022/05/09 00:25:57;;;;;;;12.23;10.98;;;;;;;;;;4939306;29;20488;-90
2022/05/09 00:28:25;;;;;;;13.68;12.27;;;;;;;;;;4923115;29;20118;-87
2022/05/09 00:30:52;;;;;;;14.07;11.50;;;;;;;;;;4939498;29;20473;-90
2022/05/09 00:33:18;;;;;;;13.80;11.93;;;;;;;;;;4923596;29;20095;-90
2022/05/09 00:35:44;;;;;;;17.17;12.00;;;;;;;;;;4926913;29;20080;-89
2022/05/09 00:38:11;;;;;;;12.98;10.43;;;;;;;;;;4921751;29;20031;-90
2022/05/09 00:40:38;;;;;;;16.02;10.18;;;;;;;;;;4922199;29;20024;-87
2022/05/09 00:43:24;;;;;;;18.67;10.20;;;;;;;;;;4923007;29;20034;-88
2022/05/09 00:45:50;;;;;;;11.93;10.35;;;;;;;;;;4927259;29;20040;-90
2022/05/09 00:48:17;;;;;;;14.93;10.23;;;;;;;;;;4922742;29;20028;-89
2022/05/09 00:50:43;;;;;;;11.68;10.07;;;;;;;;;;4922111;29;20068;-88
2022/05/09 00:53:10;;;;;;;13.77;11.30;;;;;;;;;;4939329;29;20057;-90
2022/05/09 00:55:48;;;;;;;14.18;11.40;;;;;;;;;;4921694;29;20063;-90
2022/05/09 00:58:25;;;;;;;12.27;11.00;;;;;;;;;;4921632;29;20099;-91
2022/05/09 01:00:52;;;;;;;16.63;11.52;;;;;;;;;;4921906;29;20215;-91
2022/05/09 01:03:21;;;;;;;14.45;11.68;;;;;;;;;;4924699;29;20473;-92
2022/05/09 01:05:50;;;;;;;14.25;10.63;;;;;;;;;;4921592;29;20020;-81
2022/05/09 01:08:20;;;;;;;14.77;11.98;;;;;;;;;;4925611;29;20023;-89
2022/05/09 01:10:47;;;;;;;13.73;11.13;;;;;;;;;;4922231;29;20067;-91
2022/05/09 01:13:15;;;;;;;12.30;11.20;;;;;;;;;;4922150;29;20138;-90
2022/05/09 01:15:42;;;;;;;12.98;10.93;;;;;;;;;;4921861;29;20034;-91
2022/05/09 01:18:09;;;;;;;18.50;11.13;;;;;;;;;;4923698;29;20035;-91
2022/05/09 01:20:35;;;;;;;13.73;11.52;;;;;;;;;;4923713;29;20118;-91
2022/05/09 01:23:03;;;;;;;12.30;11.15;;;;;;;;;;4921786;29;20027;-91
2022/05/09 01:25:31;;;;;;;14.85;11.30;;;;;;;;;;4930122;29;20035;-86
2022/05/09 01:27:59;;;;;;;17.25;11.70;;;;;;;;;;4934793;29;20040;-91
2022/05/09 01:30:32;;;;;;;13.82;12.15;;;;;;;;;;4931912;29;20481;-87
2022/05/09 01:33:04;;;;;;;11.75;10.45;;;;;;;;;;4934250;29;20027;-90
2022/05/09 01:35:52;;;;;;;16.23;11.52;;;;;;;;;;4931126;29;20028;-89
2022/05/09 01:38:34;;;;;;;12.77;11.57;;;;;;;;;;4932527;29;20613;-90
2022/05/09 01:41:00;;;;;;;14.27;12.75;;;;;;;;;;4931856;29;20027;-80
2022/05/09 01:43:29;;;;;;;14.25;12.65;;;;;;;;;;4946842;29;20091;-89
2022/05/09 01:45:55;;;;;;;14.38;11.93;;;;;;;;;;4931987;29;20028;-89
2022/05/09 01:51:06;;;;;;;18.75;12.35;;;;;;;;;;4950370;29;20042;-88
2022/05/09 01:53:32;;;;;;;18.77;12.05;;;;;;;;;;4934963;29;20114;-89
2022/05/09 01:55:58;;;;;;;17.67;10.82;;;;;;;;;;4933966;29;20043;-90
2022/05/09 01:58:24;;;;;;;13.73;11.85;;;;;;;;;;4932823;29;20028;-90
2022/05/09 02:00:51;;;;;;;21.23;12.70;;;;;;;;;;4929445;29;20023;-90
2022/05/09 02:03:19;;;;;;;15.90;13.30;;;;;;;;;;4931469;29;20034;-90
2022/05/09 02:05:46;;;;;;;14.52;11.68;;;;;;;;;;4935912;29;20087;-89
2022/05/09 02:08:12;;;;;;;14.60;12.88;;;;;;;;;;4935817;29;20035;-91
2022/05/09 02:10:39;;;;;;;18.17;15.82;;;;;;;;;;4932819;29;20034;-89
2022/05/09 02:13:05;;;;;;;15.85;12.32;;;;;;;;;;4930667;29;20028;-88
2022/05/09 02:15:31;;;;;;;14.40;13.00;;;;;;;;;;4927310;29;20023;-89
2022/05/09 02:18:01;;;;;;;15.63;13.73;;;;;;;;;;4930972;29;20039;-90
2022/05/09 02:20:27;;;;;;;16.17;14.00;;;;;;;;;;4929155;29;20035;-88
2022/05/09 02:22:53;;;;;;;14.68;12.60;;;;;;;;;;4947605;29;20481;-92
2022/05/09 02:25:29;;;;;;;13.70;12.23;;;;;;;;;;4934481;29;20020;-87
2022/05/09 02:28:03;;;;;;;14.52;13.02;;;;;;;;;;4935334;29;20059;-90
2022/05/09 02:30:29;;;;;;;12.88;11.50;;;;;;;;;;4926284;29;20036;-91
2022/05/09 02:32:58;;;;;;;11.95;10.57;;;;;;;;;;4929962;29;20039;-89
2022/05/09 02:35:25;;;;;;;13.70;12.35;;;;;;;;;;4946459;29;20035;-87
2022/05/09 02:37:52;;;;;;;15.20;12.05;;;;;;;;;;4929456;29;20039;-89
2022/05/09 02:40:18;;;;;;;12.65;11.38;;;;;;;;;;4929911;29;20054;-90
2022/05/09 02:42:45;;;;;;;13.02;11.80;;;;;;;;;;4929872;29;20473;-90
2022/05/09 02:45:11;;;;;;;17.85;13.23;;;;;;;;;;4947119;29;20019;-89
2022/05/09 02:47:40;;;;;;;22.42;11.82;;;;;;;;;;4947708;29;20054;-90
2022/05/09 02:50:07;;;;;;;16.23;11.93;;;;;;;;;;4947464;29;20036;-90
2022/05/09 02:52:33;;;;;;;12.95;10.63;;;;;;;;;;4948321;29;20024;-89
2022/05/09 02:54:59;;;;;;;13.57;12.27;;;;;;;;;;4931390;29;20076;-87
2022/05/09 02:57:26;;;;;;;12.77;11.38;;;;;;;;;;4930099;29;20071;-89
2022/05/09 02:59:53;;;;;;;14.13;12.57;;;;;;;;;;4921544;29;20043;-91
2022/05/09 03:02:19;;;;;;;12.82;11.52;;;;;;;;;;4926760;29;20477;-87
2022/05/09 03:04:45;;;;;;;13.38;11.18;;;;;;;;;;4928206;29;20076;-88
2022/05/09 03:07:22;;;;;;;12.00;10.02;;;;;;;;;;4924205;29;20068;-83
2022/05/09 03:09:52;;;;;;;12.20;9.95;;;;;;;;;;4922529;29;20043;-88
2022/05/09 03:12:31;;;;;;;12.55;10.90;;;;;;;;;;4922462;29;20431;-84
2022/05/09 03:14:58;;;;;;;12.82;10.63;;;;;;;;;;4922599;29;20565;-89
2022/05/09 03:17:24;;;;;;;13.05;11.15;;;;;;;;;;4927860;29;20017;-85
2022/05/09 03:19:50;;;;;;;12.60;11.40;;;;;;;;;;4924745;29;20032;-83
2022/05/09 03:22:17;;;;;;;13.57;10.82;;;;;;;;;;4924705;29;20029;-80
2022/05/09 03:24:52;;;;;;;13.20;11.80;;;;;;;;;;4923119;29;20027;-89
2022/05/09 03:27:24;;;;;;;12.10;10.57;;;;;;;;;;4928603;29;20048;-88
2022/05/09 03:29:50;;;;;;;14.50;11.35;;;;;;;;;;4926219;29;20290;-89
2022/05/09 03:32:16;;;;;;;14.25;11.55;;;;;;;;;;4924757;29;20024;-89
2022/05/09 03:34:42;;;;;;;15.07;13.48;;;;;;;;;;4923571;29;20700;-88
2022/05/09 03:37:08;;;;;;;15.88;12.10;;;;;;;;;;4924736;29;20051;-88
2022/05/09 03:39:34;;;;;;;13.18;11.55;;;;;;;;;;4927136;29;20169;-88
2022/05/09 03:42:00;;;;;;;17.17;12.20;;;;;;;;;;4928971;29;20095;-79
2022/05/09 03:44:27;;;;;;;19.35;14.27;;;;;;;;;;4928612;29;20055;-88
2022/05/09 03:46:53;;;;;;;15.88;14.27;;;;;;;;;;4932066;29;20039;-80
2022/05/09 03:49:27;;;;;;;18.42;15.57;;;;;;;;;;4930994;29;20044;-89
2022/05/09 03:51:53;;;;;;;15.00;13.55;;;;;;;;;;4929044;29;20024;-90
2022/05/09 03:54:19;;;;;;;15.13;12.80;;;;;;;;;;4935058;29;20100;-89
2022/05/09 03:56:45;;;;;;;13.77;12.10;;;;;;;;;;4932782;29;20540;-89
2022/05/09 03:59:12;;;;;;;13.80;12.35;;;;;;;;;;4927660;29;20028;-86
2022/05/09 04:01:38;;;;;;;16.50;13.73;;;;;;;;;;4925055;29;20066;-80
2022/05/09 04:04:04;;;;;;;16.27;14.45;;;;;;;;;;4924596;29;20114;-88
2022/05/09 04:06:31;;;;;;;17.73;15.80;;;;;;;;;;4922293;29;20031;-86
2022/05/09 04:08:57;;;;;;;27.77;18.05;;;;;;;;;;4922465;29;20044;-89
2022/05/09 04:11:23;;;;;;;21.85;14.27;;;;;;;;;;4922606;29;20486;-90
2022/05/09 04:13:50;;;;;;;17.35;14.65;;;;;;;;;;4923618;29;20091;-90
2022/05/09 04:19:01;;;;;;;18.13;15.77;;;;;;;;;;4939323;29;20039;-86
2022/05/09 04:21:27;;;;;;;17.40;15.38;;;;;;;;;;4922417;29;20024;-84
2022/05/09 04:23:58;;;;;;;14.90;13.15;;;;;;;;;;4922325;29;20087;-86
2022/05/09 04:26:25;;;;;;;17.10;15.30;;;;;;;;;;4922364;29;20097;-83
2022/05/09 04:28:51;;;;;;;13.65;12.20;;;;;;;;;;4922286;29;20044;-87
2022/05/09 04:31:19;;;;;;;14.60;13.10;;;;;;;;;;4922318;29;20052;-87
2022/05/09 04:33:46;;;;;;;15.90;13.63;;;;;;;;;;4922203;29;20058;-87
2022/05/09 04:36:12;;;;;;;22.63;14.40;;;;;;;;;;4922461;29;20031;-88
2022/05/09 04:38:41;;;;;;;16.83;13.57;;;;;;;;;;4922215;29;20031;-84
2022/05/09 04:41:10;;;;;;;13.98;12.50;;;;;;;;;;4921716;29;20087;-84
2022/05/09 04:43:37;;;;;;;14.07;12.40;;;;;;;;;;4921940;29;20027;-85
2022/05/09 04:46:04;;;;;;;17.45;13.65;;;;;;;;;;4921955;29;20034;-85
2022/05/09 04:48:30;;;;;;;22.65;16.48;;;;;;;;;;4921828;29;20043;-84
2022/05/09 04:50:56;;;;;;;17.98;12.95;;;;;;;;;;4921102;29;20118;-84
2022/05/09 04:53:23;;;;;;;18.15;9.10;;;;;;;;;;4921578;29;20031;-82
2022/05/09 04:55:49;;;;;;;13.02;9.32;;;;;;;;;;4921470;29;20137;-85
2022/05/09 04:58:17;;;;;;;9.13;7.22;;;;;;;;;;4929200;29;20035;-84
2022/05/09 05:00:44;;;;;;;11.65;8.95;;;;;;;;;;4937284;29;20037;-83
2022/05/09 05:03:10;;;;;;;11.98;8.93;;;;;;;;;;4921469;29;20075;-83
2022/05/09 05:05:36;;;;;;;11.40;9.50;;;;;;;;;;4953994;28;20075;-81
2022/05/09 05:08:04;;;;;;;15.65;10.57;;;;;;;;;;4936796;29;20122;-84
2022/05/09 05:10:30;;;;;;;12.68;8.85;;;;;;;;;;4937033;29;20024;-83
2022/05/09 05:12:58;;;;;;;10.93;9.30;;;;;;;;;;4936778;29;20048;-82
2022/05/09 05:15:25;;;;;;;8.98;8.07;;;;;;;;;;4937448;29;20111;-81
2022/05/09 05:17:51;;;;;;;11.95;8.18;;;;;;;;;;4936883;29;20027;-84
2022/05/09 05:20:17;;;;;;;11.43;8.23;;;;;;;;;;4936587;29;20071;-81
2022/05/09 05:22:44;;;;;;;9.90;7.88;;;;;;;;;;4937761;29;20031;-83
2022/05/09 05:25:11;;;;;;;12.77;9.35;;;;;;;;;;4938045;29;20103;-89
2022/05/09 05:27:37;;;;;;;12.07;9.20;;;;;;;;;;4939499;29;20143;-87
2022/05/09 05:30:04;;;;;;;16.50;9.30;;;;;;;;;;4936780;29;20028;-85
2022/05/09 05:32:34;;;;;;;10.52;8.55;;;;;;;;;;4925030;29;20114;-85
2022/05/09 05:35:00;;;;;;;17.55;10.65;;;;;;;;;;4952578;29;20548;-83
2022/05/09 05:37:26;;;;;;;9.77;7.60;;;;;;;;;;4920344;29;20480;-83
2022/05/09 05:39:52;;;;;;;11.93;9.00;;;;;;;;;;4952059;29;20032;-82
2022/05/09 05:42:19;;;;;;;9.82;7.93;;;;;;;;;;4952150;29;20122;-85
2022/05/09 05:44:46;;;;;;;14.60;9.13;;;;;;;;;;4937343;29;20034;-86
2022/05/09 05:47:15;;;;;;;12.32;8.63;;;;;;;;;;4952240;29;20028;-83
2022/05/09 05:49:41;;;;;;;11.98;7.78;;;;;;;;;;4952569;29;20409;-87
2022/05/09 05:52:08;;;;;;;15.77;8.27;;;;;;;;;;4952833;29;20050;-87
2022/05/09 05:54:36;;;;;;;13.43;9.77;;;;;;;;;;4949244;29;20052;-88
2022/05/09 05:57:03;;;;;;;12.95;9.07;;;;;;;;;;4917656;29;20585;-87
2022/05/09 05:59:30;;;;;;;9.48;7.13;;;;;;;;;;4918642;29;20028;-88
2022/05/09 06:01:56;;;;;;;13.38;9.27;;;;;;;;;;4916778;29;20628;-88
2022/05/09 06:04:23;;;;;;;12.65;8.55;;;;;;;;;;4917427;29;20119;-82
2022/05/09 06:06:49;;;;;;;10.00;7.72;;;;;;;;;;4917131;29;20398;-87
2022/05/09 06:09:16;;;;;;;11.45;7.75;;;;;;;;;;4918222;29;20040;-87
2022/05/09 06:11:42;;;;;;;14.50;8.57;;;;;;;;;;4917701;29;20024;-88
2022/05/09 06:14:09;;;;;;;14.05;9.55;;;;;;;;;;4917667;29;20556;-88
2022/05/09 06:16:37;;;;;;;10.02;7.63;;;;;;;;;;4917159;29;20039;-83
2022/05/09 06:19:04;;;;;;;12.55;8.05;;;;;;;;;;4917177;29;20028;-83
2022/05/09 06:21:34;;;;;;;11.85;7.82;;;;;;;;;;4917318;29;20024;-86
2022/05/09 06:24:01;;;;;;;11.18;7.07;;;;;;;;;;4917663;29;20028;-89
2022/05/09 06:26:27;;;;;;;13.18;7.85;;;;;;;;;;4917095;29;20028;-83
2022/05/09 06:28:54;;;;;;;14.30;8.52;;;;;;;;;;4918025;29;20040;-87
2022/05/09 06:31:20;;;;;;;13.30;8.93;;;;;;;;;;4916802;29;20021;-83
2022/05/09 06:33:46;;;;;;;15.55;8.65;;;;;;;;;;4918084;29;20140;-86
2022/05/09 06:36:12;;;;;;;15.77;10.00;;;;;;;;;;4916807;29;20021;-85
2022/05/09 06:38:39;;;;;;;12.45;8.80;;;;;;;;;;4917084;29;20040;-90
2022/05/09 06:41:07;;;;;;;13.75;9.52;;;;;;;;;;4917103;29;20103;-83
2022/05/09 06:43:34;;;;;;;10.40;8.43;;;;;;;;;;4916084;29;20079;-88
2022/05/09 06:46:00;;;;;;;9.75;7.90;;;;;;;;;;4916533;29;20051;-88
2022/05/09 06:48:32;;;;;;;12.27;7.63;;;;;;;;;;4917604;29;20067;-91
2022/05/09 06:50:59;;;;;;;11.35;7.63;;;;;;;;;;4918002;29;20123;-91
2022/05/09 06:53:25;;;;;;;12.55;7.07;;;;;;;;;;4916699;29;20028;-92
2022/05/09 06:55:51;;;;;;;10.77;7.00;;;;;;;;;;4916430;29;20056;-84
2022/05/09 06:58:21;;;;;;;11.43;7.13;;;;;;;;;;4916855;29;20034;-91
2022/05/09 07:00:47;;;;;;;11.73;6.80;;;;;;;;;;4916839;29;20390;-85
2022/05/09 07:03:13;;;;;;;8.13;6.47;;;;;;;;;;4916807;29;20115;-85
2022/05/09 07:05:43;;;;;;;10.20;6.13;;;;;;;;;;4916562;29;20032;-84
2022/05/09 07:08:09;;;;;;;7.68;6.40;;;;;;;;;;4916547;29;20040;-82
2022/05/09 07:10:36;;;;;;;10.77;6.57;;;;;;;;;;4916408;29;20032;-86
2022/05/09 07:13:04;;;;;;;9.82;7.03;;;;;;;;;;4917005;29;20035;-84
2022/05/09 07:15:31;;;;;;;12.25;7.20;;;;;;;;;;4920291;29;20024;-87
2022/05/09 07:17:58;;;;;;;9.35;7.35;;;;;;;;;;4919902;29;20024;-85
2022/05/09 07:20:25;;;;;;;8.40;7.20;;;;;;;;;;4920071;29;20040;-85
2022/05/09 07:22:53;;;;;;;10.98;7.15;;;;;;;;;;4921231;29;20024;-86
2022/05/09 07:25:20;;;;;;;8.32;7.20;;;;;;;;;;4920432;29;20036;-87
2022/05/09 07:27:46;;;;;;;10.05;7.82;;;;;;;;;;4920974;29;20039;-88
2022/05/09 07:30:13;;;;;;;13.05;7.43;;;;;;;;;;4922279;29;20032;-87
2022/05/09 07:32:40;;;;;;;11.75;7.22;;;;;;;;;;4921730;29;20028;-94
2022/05/09 07:35:10;;;;;;;9.48;7.43;;;;;;;;;;4922885;29;20031;-92
2022/05/09 07:37:44;;;;;;;9.15;6.60;;;;;;;;;;4920157;29;20061;-92
2022/05/09 07:40:11;;;;;;;10.15;7.88;;;;;;;;;;4919859;29;20098;-89
2022/05/09 07:42:38;;;;;;;9.88;7.50;;;;;;;;;;4919804;29;20035;-85
2022/05/09 07:45:05;;;;;;;13.63;6.90;;;;;;;;;;4919850;29;20058;-85
2022/05/09 07:47:31;;;;;;;11.77;7.20;;;;;;;;;;4921610;29;20020;-90
2022/05/09 07:49:57;;;;;;;7.57;5.80;;;;;;;;;;4920076;29;20036;-89
2022/05/09 07:52:24;;;;;;;9.07;6.80;;;;;;;;;;4920581;29;20034;-88
2022/05/09 07:54:50;;;;;;;9.95;6.38;;;;;;;;;;4919264;29;20063;-83
2022/05/09 07:57:17;;;;;;;10.05;6.78;;;;;;;;;;4919929;29;20039;-83
2022/05/09 07:59:43;;;;;;;9.27;6.30;;;;;;;;;;4919419;29;20025;-83
2022/05/09 08:02:09;;;;;;;7.93;5.45;;;;;;;;;;4919686;29;20036;-92
2022/05/09 08:04:35;;;;;;;7.80;4.93;;;;;;;;;;4919623;29;20087;-82
2022/05/09 08:07:02;;;;;;;7.47;4.38;;;;;;;;;;4919115;29;20123;-90
2022/05/09 08:09:28;;;;;;;8.70;5.30;;;;;;;;;;4917789;29;20036;-81
2022/05/09 08:11:54;;;;;;;5.75;5.03;;;;;;;;;;4919130;29;20028;-88
2022/05/09 08:14:21;;;;;;;7.47;5.00;;;;;;;;;;4919176;29;20043;-81
2022/05/09 08:16:47;;;;;;;5.45;4.70;;;;;;;;;;4919014;29;20084;-81
2022/05/09 08:19:14;;;;;;;5.97;4.90;;;;;;;;;;4918990;29;20024;-81
2022/05/09 08:21:40;;;;;;;6.03;4.75;;;;;;;;;;4919144;29;20078;-87
2022/05/09 08:24:08;;;;;;;8.60;4.35;;;;;;;;;;4918614;29;20024;-86
2022/05/09 08:26:34;;;;;;;6.25;4.35;;;;;;;;;;4918748;29;20120;-86
2022/05/09 08:29:00;;;;;;;7.72;4.80;;;;;;;;;;4919031;29;20067;-87
2022/05/09 08:31:26;;;;;;;9.80;4.47;;;;;;;;;;4919013;29;20024;-87
2022/05/09 08:33:53;;;;;;;7.95;4.35;;;;;;;;;;4919305;29;20035;-86
2022/05/09 08:39:08;;;;;;;6.18;4.10;;;;;;;;;;4920782;29;20046;-87
2022/05/09 08:41:43;;;;;;;7.65;3.72;;;;;;;;;;4918546;29;20024;-83
2022/05/09 08:44:15;;;;;;;5.22;4.60;;;;;;;;;;4920125;29;20028;-87
2022/05/09 08:46:51;;;;;;;7.03;4.15;;;;;;;;;;4918625;29;20032;-87
2022/05/09 08:49:23;;;;;;;5.80;3.75;;;;;;;;;;4918476;29;20044;-81
2022/05/09 08:52:00;;;;;;;6.65;3.53;;;;;;;;;;4919712;29;20095;-87
2022/05/09 08:54:26;;;;;;;5.88;3.85;;;;;;;;;;4921359;29;20047;-85
2022/05/09 08:56:57;;;;;;;6.05;3.58;;;;;;;;;;4939060;29;20036;-85
2022/05/09 08:59:39;;;;;;;6.75;4.10;;;;;;;;;;4938057;29;20032;-87
2022/05/09 09:02:05;;;;;;;7.80;4.20;;;;;;;;;;4937135;29;20477;-86
2022/05/09 09:04:34;;;;;;;5.47;3.15;;;;;;;;;;4936962;29;20028;-86
2022/05/09 09:07:12;;;;;;;4.38;2.97;;;;;;;;;;4937037;29;20501;-86
2022/05/09 09:09:57;;;;;;;5.95;3.30;;;;;;;;;;4937377;29;20095;-87
2022/05/09 09:12:29;;;;;;;6.22;3.45;;;;;;;;;;4939168;29;20477;-87
2022/05/09 09:15:02;;;;;;;4.57;3.75;;;;;;;;;;4938907;29;20556;-86
2022/05/09 09:17:35;;;;;;;6.18;3.53;;;;;;;;;;4937657;29;20055;-88
2022/05/09 09:20:04;;;;;;;6.20;3.38;;;;;;;;;;4938518;29;20035;-86
2022/05/09 09:22:49;;;;;;;4.68;3.30;;;;;;;;;;4936626;29;20024;-86
2022/05/09 09:25:28;;;;;;;4.00;2.53;;;;;;;;;;4937269;29;20393;-88
2022/05/09 09:27:58;;;;;;;3.13;2.80;;;;;;;;;;4936509;29;20119;-87
2022/05/09 09:30:25;;;;;;;4.68;2.75;;;;;;;;;;4936646;29;20441;-85
2022/05/09 09:33:02;;;;;;;5.72;3.25;;;;;;;;;;4936456;29;20054;-86
2022/05/09 09:35:34;;;;;;;4.60;2.85;;;;;;;;;;4938998;29;20031;-84
2022/05/09 09:38:07;;;;;;;4.30;3.03;;;;;;;;;;4936524;29;20023;-88
2022/05/09 09:40:33;;;;;;;;;;;;;;;;;;4936794;29;20031;-85
2022/05/09 09:42:59;;;;;;;4.90;2.95;;;;;;;;;;4936450;29;20001;-87
2022/05/09 09:45:31;;;;;;;5.57;3.28;;;;;;;;;;4936139;29;20031;-85
2022/05/09 09:48:16;;;;;;;3.78;2.72;;;;;;;;;;4936288;29;20039;-87
2022/05/09 09:50:51;;;;;;;4.95;2.53;;;;;;;;;;4936404;29;20035;-85
2022/05/09 09:53:29;;;;;;;4.25;2.63;;;;;;;;;;4936005;29;20032;-85
2022/05/09 09:56:07;;;;;;;5.72;2.40;;;;;;;;;;4935822;29;20054;-84
2022/05/09 09:58:34;;;;;;;4.85;3.00;;;;;;;;;;4935869;29;20035;-85
2022/05/09 10:01:12;;;;;;;5.60;2.70;;;;;;;;;;4937178;29;20074;-85
2022/05/09 10:03:40;;;;;;;3.05;2.70;;;;;;;;;;4936133;29;20031;-85
2022/05/09 10:06:14;;;;;;;6.38;2.90;;;;;;;;;;4936642;29;20039;-87
2022/05/09 10:08:41;;;;;;;5.50;2.70;;;;;;;;;;4935701;29;20043;-86
2022/05/09 10:11:07;;;;;;;5.80;2.85;;;;;;;;;;4935673;29;20058;-86
2022/05/09 10:13:35;;;;;;;6.20;2.35;;;;;;;;;;4935614;29;20057;-83
2022/05/09 10:16:02;;;;;;;4.38;3.05;;;;;;;;;;4935539;29;20031;-86
2022/05/09 10:18:31;;;;;;;3.75;2.60;;;;;;;;;;4936044;29;20039;-87
2022/05/09 10:21:00;;;;;;;4.57;2.72;;;;;;;;;;4936177;29;20030;-86
2022/05/09 10:26:24;;;;;;;4.22;2.25;;;;;;;;;;4937021;29;20099;-84
2022/05/09 10:28:54;;;;;;;6.10;2.80;;;;;;;;;;4935237;29;20131;-84
2022/05/09 10:31:44;;;;;;;4.68;2.70;;;;;;;;;;4935550;29;20028;-84
2022/05/09 10:34:30;;;;;;;5.15;2.83;;;;;;;;;;4935558;29;20039;-86
2022/05/09 10:37:03;;;;;;;3.50;2.60;;;;;;;;;;4935112;29;20087;-84
2022/05/09 10:39:43;;;;;;;3.25;2.58;;;;;;;;;;4931926;29;20140;-85
2022/05/09 10:42:12;;;;;;;3.97;2.10;;;;;;;;;;4919327;29;20059;-86
2022/05/09 10:44:41;;;;;;;4.68;2.35;;;;;;;;;;4919130;29;20489;-83
2022/05/09 10:47:28;;;;;;;3.70;2.90;;;;;;;;;;4919465;29;20027;-85
2022/05/09 10:50:15;;;;;;;4.38;2.53;;;;;;;;;;4919365;29;20132;-86
2022/05/09 10:53:06;;;;;;;4.28;2.83;;;;;;;;;;4917146;29;20035;-91
2022/05/09 10:56:08;;;;;;;4.03;2.58;;;;;;;;;;4938576;29;20512;-95
2022/05/09 10:58:36;;;;;;;3.50;2.47;;;;;;;;;;4883450;29;20060;-83
2022/05/09 11:01:07;;;;;;;3.92;2.38;;;;;;;;;;4911819;29;20032;-85
2022/05/09 11:03:37;;;;;;;4.85;2.70;;;;;;;;;;4918484;29;20063;-85
2022/05/09 11:06:25;;;;;;;5.55;2.60;;;;;;;;;;4920721;29;20020;-90
2022/05/09 11:09:00;;;;;;;3.50;2.30;;;;;;;;;;4919535;29;20040;-85
2022/05/09 11:11:49;;;;;;;3.25;2.22;;;;;;;;;;4937083;29;20032;-87
2022/05/09 11:14:25;;;;;;;3.95;1.98;;;;;;;;;;4939040;29;20038;-79
2022/05/09 11:17:10;;;;;;;2.72;2.00;;;;;;;;;;4936844;29;20035;-85
2022/05/09 11:19:44;;;;;;;3.97;2.20;;;;;;;;;;4937166;29;20032;-84
2022/05/09 11:22:19;;;;;;;2.35;1.92;;;;;;;;;;4936627;29;20122;-84
2022/05/09 11:24:48;;;;;;;3.60;2.50;;;;;;;;;;4936217;29;20035;-85
2022/05/09 11:27:14;;;;;;;3.20;2.53;;;;;;;;;;4936689;29;20055;-84
2022/05/09 11:29:59;;;;;;;4.65;2.55;;;;;;;;;;4934668;29;20075;-85
2022/05/09 11:32:35;;;;;;;4.15;2.70;;;;;;;;;;4934940;29;20067;-85
2022/05/09 11:35:21;;;;;;;4.53;2.72;;;;;;;;;;4934831;29;20062;-82
2022/05/09 11:38:05;;;;;;;3.15;2.70;;;;;;;;;;4934647;29;20074;-82
2022/05/09 11:40:51;;;;;;;7.00;3.15;;;;;;;;;;4934849;29;20031;-87
2022/05/09 11:43:29;;;;;;;6.72;2.97;;;;;;;;;;4912823;29;20040;-89
2022/05/09 11:46:07;;;;;;;4.45;2.65;;;;;;;;;;4935098;29;20102;-89
2022/05/09 11:48:33;;;;;;;6.22;3.00;;;;;;;;;;4934635;29;20043;-83
2022/05/09 11:51:23;;;;;;;6.43;2.92;;;;;;;;;;4935449;29;20032;-83
2022/05/09 11:53:53;;;;;;;4.70;2.78;;;;;;;;;;4916111;29;20374;-83
2022/05/09 11:56:20;;;;;;;5.35;3.05;;;;;;;;;;4936015;29;20536;-82
2022/05/09 11:58:46;;;;;;;3.20;2.47;;;;;;;;;;4934445;29;20139;-78
2022/05/09 12:01:12;;;;;;;7.00;2.95;;;;;;;;;;4930475;29;20495;-80
2022/05/09 12:03:42;;;;;;;3.83;2.90;;;;;;;;;;4939700;29;20038;-86
2022/05/09 12:06:28;;;;;;;7.53;3.22;;;;;;;;;;4954312;29;20027;-87
2022/05/09 12:08:56;;;;;;;4.38;2.60;;;;;;;;;;4954500;29;20374;-86
2022/05/09 12:11:33;;;;;;;4.65;3.00;;;;;;;;;;4954249;29;20091;-85
2022/05/09 12:14:01;;;;;;;6.35;2.83;;;;;;;;;;4954495;29;20035;-85
2022/05/09 12:16:36;;;;;;;4.47;2.95;;;;;;;;;;4954899;29;20024;-87
2022/05/09 12:19:11;;;;;;;5.47;3.10;;;;;;;;;;4954433;29;20119;-85
2022/05/09 12:21:37;;;;;;;5.97;3.00;;;;;;;;;;4954309;29;20585;-88
2022/05/09 12:24:30;;;;;;;5.38;2.65;;;;;;;;;;4954467;29;20174;-86
2022/05/09 12:26:56;;;;;;;4.13;3.00;;;;;;;;;;4921411;29;20043;-87
2022/05/09 12:29:24;;;;;;;5.50;2.90;;;;;;;;;;4954805;29;20486;-87
2022/05/09 12:31:58;;;;;;;4.63;3.00;;;;;;;;;;4954279;29;20047;-90
2022/05/09 12:34:34;;;;;;;4.82;2.92;;;;;;;;;;4955290;29;20114;-88
2022/05/09 12:37:01;;;;;;;3.50;2.83;;;;;;;;;;4954171;29;20046;-88
2022/05/09 12:39:36;;;;;;;3.67;2.80;;;;;;;;;;4954236;29;20099;-87
2022/05/09 12:42:05;;;;;;;4.68;2.75;;;;;;;;;;4954209;29;20589;-86
2022/05/09 12:44:46;;;;;;;3.45;2.83;;;;;;;;;;4938376;29;20028;-89
2022/05/09 12:47:24;;;;;;;4.75;2.78;;;;;;;;;;4954618;29;20039;-90
2022/05/09 12:49:55;;;;;;;4.45;2.70;;;;;;;;;;4936889;29;20036;-86
2022/05/09 12:52:25;;;;;;;4.55;2.75;;;;;;;;;;4953755;29;20028;-83
2022/05/09 12:57:39;;;;;;;5.47;2.90;;;;;;;;;;4938806;29;20046;-85
2022/05/09 13:00:10;;;;;;;3.60;2.50;;;;;;;;;;4928019;29;20087;-86
2022/05/09 13:02:36;;;;;;;4.70;2.90;;;;;;;;;;4953468;29;20032;-90
2022/05/09 13:05:03;;;;;;;3.75;2.90;;;;;;;;;;4955715;28;20032;-84
2022/05/09 13:07:29;;;;;;;5.15;2.95;;;;;;;;;;4921144;29;20078;-85
2022/05/09 13:09:57;;;;;;;7.13;3.25;;;;;;;;;;4955054;29;20040;-83
2022/05/09 13:12:26;;;;;;;9.10;3.30;;;;;;;;;;4922343;29;20031;-85
2022/05/09 13:14:57;;;;;;;3.80;2.97;;;;;;;;;;4953333;29;20124;-86
2022/05/09 13:18:29;;;;;;;;;;;;;;;;;;;;;
2022/05/09 13:20:22;;;;;;;7.07;3.10;;;;;;;;;;4927330;29;20405;-77
2022/05/09 13:22:54;;;;;;;8.77;3.13;;;;;;;;;;4920981;29;20027;-85
2022/05/09 13:26:01;;;;;;;5.10;2.90;;;;;;;;;;4938145;29;20047;-84
2022/05/09 13:28:31;;;;;;;6.80;3.20;;;;;;;;;;4882225;29;20045;-83
2022/05/09 13:30:57;;;;;;;5.80;3.28;;;;;;;;;;4897916;29;20036;-80
2022/05/09 13:33:25;;;;;;;5.15;3.35;;;;;;;;;;4918231;29;20501;-79
2022/05/09 13:35:55;;;;;;;9.25;3.63;;;;;;;;;;4937555;29;20031;-81
2022/05/09 13:38:22;;;;;;;5.75;3.08;;;;;;;;;;4920455;29;20055;-89
2022/05/09 13:40:50;;;;;;;11.93;2.95;;;;;;;;;;4920949;29;20059;-87
2022/05/09 13:43:21;;;;;;;17.85;3.15;;;;;;;;;;4920441;29;20038;-84
2022/05/09 13:45:47;;;;;;;5.57;2.78;;;;;;;;;;4920228;29;20028;-81
2022/05/09 13:48:23;;;;;;;4.50;2.70;;;;;;;;;;4920379;29;20035;-84
2022/05/09 13:50:50;;;;;;;4.97;2.90;;;;;;;;;;4920901;29;20393;-87
2022/05/09 13:53:21;;;;;;;3.67;2.60;;;;;;;;;;4937467;29;20028;-84
2022/05/09 13:55:49;;;;;;;3.63;2.75;;;;;;;;;;4920589;29;20052;-86
2022/05/09 13:58:19;;;;;;;4.30;2.78;;;;;;;;;;4920824;29;20433;-85
2022/05/09 14:00:47;;;;;;;3.85;2.60;;;;;;;;;;4920665;29;20043;-89
2022/05/09 14:03:25;;;;;;;6.00;2.53;;;;;;;;;;4920550;29;20090;-82
2022/05/09 14:05:52;;;;;;;6.47;2.85;;;;;;;;;;4920640;29;20032;-88
2022/05/09 14:08:19;;;;;;;7.38;2.88;;;;;;;;;;4920502;29;20058;-89
2022/05/09 14:10:47;;;;;;;3.40;2.75;;;;;;;;;;4920912;29;20032;-81
2022/05/09 14:13:34;;;;;;;5.50;2.78;;;;;;;;;;4920591;29;20035;-89
2022/05/09 14:16:15;;;;;;;4.75;2.63;;;;;;;;;;4920896;29;20059;-87
2022/05/09 14:18:42;;;;;;;5.55;2.50;;;;;;;;;;4920750;29;20028;-83
2022/05/09 14:21:19;;;;;;;7.57;2.60;;;;;;;;;;4920555;29;20020;-89
2022/05/09 14:23:47;;;;;;;6.95;2.40;;;;;;;;;;4919662;29;20070;-87
2022/05/09 14:32:17;;;;;;;4.13;2.30;;;;;;;;;;4938705;29;20030;-88
2022/05/09 14:34:46;;;;;;;4.43;2.17;;;;;;;;;;4901011;29;20059;-89
2022/05/09 14:37:21;;;;;;;4.18;2.30;;;;;;;;;;4951656;29;20028;-84
2022/05/09 14:40:14;;;;;;;3.75;2.20;;;;;;;;;;4936524;29;20441;-82
2022/05/09 14:42:49;;;;;;;3.00;2.10;;;;;;;;;;4936756;29;20019;-84
2022/05/09 14:45:19;;;;;;;4.65;2.20;;;;;;;;;;4951551;29;20481;-84
2022/05/09 14:47:49;;;;;;;4.32;2.42;;;;;;;;;;4936972;29;20473;-83
2022/05/09 14:50:27;;;;;;;5.95;2.00;;;;;;;;;;4951898;29;20035;-84
2022/05/09 14:52:58;;;;;;;4.03;1.80;;;;;;;;;;4951781;29;20118;-86
2022/05/09 14:58:34;;;;;;;5.75;2.25;;;;;;;;;;4937258;29;20136;-87
2022/05/09 15:01:02;;;;;;;4.10;2.10;;;;;;;;;;4937419;29;20024;-87
2022/05/09 15:03:30;;;;;;;7.13;2.30;;;;;;;;;;4951280;29;20032;-83
2022/05/09 15:06:00;;;;;;;3.67;1.85;;;;;;;;;;4951094;29;20446;-86
2022/05/09 15:08:27;;;;;;;5.47;2.20;;;;;;;;;;4950834;29;20522;-87
2022/05/09 15:10:54;;;;;;;3.00;2.03;;;;;;;;;;4951575;29;20050;-80
2022/05/09 15:13:22;;;;;;;6.50;2.10;;;;;;;;;;4951492;29;20031;-85